Time;durP1;ratioP1;P1;durP2;ratioP2;P2;SDS_P1;SDS_P2;PMS_P1;PMS_P2;Temp;Humidity;BMP_temperature;BMP_pressure;BME280_temperature;BME280_humidity;BME280_pressure;Samples;Min_cycle;Max_cycle;Signal;HPM_P1;HPM_P2
2022/03/05 00:00:51;;;;;;;29.17;13.48;;;6.10;99.90;;;;;;5034871;28;20182;-81
2022/03/05 00:03:16;;;;;;;20.42;12.30;;;6.20;99.90;;;;;;5033881;28;20164;-80
2022/03/05 00:05:43;;;;;;;22.85;12.95;;;6.30;99.90;;;;;;5033835;28;20557;-80
2022/03/05 00:08:09;;;;;;;32.35;15.45;;;6.40;99.90;;;;;;5033783;28;20616;-80
2022/03/05 00:10:35;;;;;;;26.02;14.38;;;6.40;99.90;;;;;;5033860;28;20214;-80
2022/03/05 00:13:01;;;;;;;33.67;15.20;;;6.40;99.90;;;;;;5034622;28;20659;-80
2022/03/05 00:15:28;;;;;;;38.78;16.25;;;6.30;99.90;;;;;;5035039;28;20187;-80
2022/03/05 00:17:54;;;;;;;26.13;13.73;;;6.40;99.90;;;;;;5034858;28;20254;-80
2022/03/05 00:20:23;;;;;;;21.58;13.30;;;6.40;99.90;;;;;;5033384;28;20167;-80
2022/03/05 00:22:53;;;;;;;38.47;15.68;;;6.40;99.90;;;;;;5034755;28;20234;-80
2022/03/05 00:25:24;;;;;;;28.92;13.90;;;6.30;99.90;;;;;;5034966;28;20180;-80
2022/03/05 00:27:51;;;;;;;26.42;15.60;;;6.30;99.90;;;;;;5034720;28;20628;-80
2022/03/05 00:30:17;;;;;;;20.77;13.60;;;6.20;99.90;;;;;;5034619;28;20780;-81
2022/03/05 00:32:44;;;;;;;23.48;12.90;;;5.70;99.90;;;;;;5034436;28;20200;-80
2022/03/05 00:35:10;;;;;;;26.88;14.05;;;5.40;99.90;;;;;;5033231;28;20675;-80
2022/03/05 00:37:36;;;;;;;25.98;14.80;;;5.40;99.90;;;;;;5033404;28;20583;-80
2022/03/05 00:40:02;;;;;;;24.90;13.13;;;5.40;99.90;;;;;;5034361;28;20221;-80
2022/03/05 00:42:28;;;;;;;28.65;13.15;;;5.60;99.90;;;;;;5033039;28;20274;-81
2022/03/05 00:44:54;;;;;;;24.90;13.23;;;5.50;99.90;;;;;;5034186;28;20254;-79
2022/03/05 00:47:19;;;;;;;26.15;13.98;;;5.60;99.90;;;;;;5032751;28;20167;-80
2022/03/05 00:49:45;;;;;;;26.55;15.07;;;5.50;99.90;;;;;;5034208;28;20171;-80
2022/03/05 00:52:10;;;;;;;31.83;16.13;;;5.60;99.90;;;;;;5032676;28;20209;-80
2022/03/05 00:54:36;;;;;;;34.40;15.68;;;5.60;99.90;;;;;;5034064;28;20653;-80
2022/03/05 00:57:02;;;;;;;27.15;14.23;;;5.60;99.90;;;;;;5032887;28;20172;-80
2022/03/05 00:59:28;;;;;;;25.92;14.48;;;5.70;99.90;;;;;;5033421;28;20521;-80
2022/03/05 01:01:54;;;;;;;29.40;16.65;;;5.70;99.90;;;;;;5032898;28;20187;-80
2022/03/05 01:04:20;;;;;;;27.38;14.30;;;5.60;99.90;;;;;;5032959;28;20540;-80
2022/03/05 01:06:45;;;;;;;29.33;14.85;;;5.60;99.90;;;;;;5033750;28;20168;-80
2022/03/05 01:09:11;;;;;;;37.58;13.95;;;5.70;99.90;;;;;;5033795;28;20222;-80
2022/03/05 01:11:37;;;;;;;26.85;15.27;;;5.70;99.90;;;;;;5032603;28;20183;-80
2022/03/05 01:14:03;;;;;;;27.88;15.07;;;5.60;99.90;;;;;;5032707;28;20160;-81
2022/03/05 01:16:29;;;;;;;28.35;14.82;;;5.50;99.90;;;;;;5032245;28;20191;-80
2022/03/05 01:18:54;;;;;;;33.90;15.02;;;5.50;99.90;;;;;;5032405;28;20226;-81
2022/03/05 01:21:20;;;;;;;19.85;13.10;;;5.50;99.90;;;;;;5032249;28;20168;-81
2022/03/05 01:23:46;;;;;;;23.45;14.00;;;5.50;99.90;;;;;;5032634;28;20179;-81
2022/03/05 01:26:11;;;;;;;29.35;14.65;;;5.50;99.90;;;;;;5031886;28;20192;-80
2022/03/05 01:28:37;;;;;;;26.73;15.88;;;5.30;99.90;;;;;;5031946;28;20269;-82
2022/03/05 01:31:03;;;;;;;32.28;15.65;;;5.10;99.90;;;;;;5032043;28;20172;-81
2022/03/05 01:33:28;;;;;;;28.38;15.55;;;5.20;99.90;;;;;;5033214;28;20203;-81
2022/03/05 01:35:54;;;;;;;25.30;15.63;;;5.20;99.90;;;;;;5033111;28;20192;-81
2022/03/05 01:38:20;;;;;;;27.80;14.90;;;5.20;99.90;;;;;;5033117;28;20168;-81
2022/03/05 01:40:46;;;;;;;25.58;14.50;;;5.20;99.90;;;;;;5032030;28;20164;-81
2022/03/05 01:43:13;;;;;;;25.45;14.80;;;5.20;99.90;;;;;;5034039;28;20266;-81
2022/03/05 01:45:39;;;;;;;25.05;14.70;;;5.20;99.90;;;;;;5033466;28;20550;-80
2022/03/05 01:48:05;;;;;;;25.48;14.95;;;5.20;99.90;;;;;;5033257;28;20168;-81
2022/03/05 01:50:31;;;;;;;26.67;14.73;;;5.20;99.90;;;;;;5033421;28;20160;-81
2022/03/05 01:52:57;;;;;;;31.48;13.25;;;5.00;99.90;;;;;;5033047;28;20207;-81
2022/03/05 01:55:24;;;;;;;33.33;15.93;;;4.90;99.90;;;;;;5033240;28;20188;-81
2022/03/05 01:57:50;;;;;;;26.48;14.18;;;4.90;99.90;;;;;;5033348;28;20174;-81
2022/03/05 02:00:16;;;;;;;27.40;14.27;;;4.90;99.90;;;;;;5031429;28;20224;-80
2022/03/05 02:02:43;;;;;;;30.13;14.90;;;4.90;99.90;;;;;;5032825;28;20196;-81
2022/03/05 02:05:10;;;;;;;25.63;14.50;;;4.50;99.90;;;;;;5031548;28;20195;-80
2022/03/05 02:07:36;;;;;;;30.35;15.05;;;4.40;99.90;;;;;;5032977;28;20160;-81
2022/03/05 02:10:04;;;;;;;33.90;16.38;;;4.60;99.90;;;;;;5031639;28;20225;-81
2022/03/05 02:12:31;;;;;;;34.85;16.35;;;4.80;99.90;;;;;;5032433;28;20560;-82
2022/03/05 02:15:01;;;;;;;26.15;16.25;;;4.90;99.90;;;;;;5032712;28;20191;-80
2022/03/05 02:17:28;;;;;;;28.38;15.43;;;4.80;99.90;;;;;;5031297;28;20176;-80
2022/03/05 02:19:54;;;;;;;23.60;13.90;;;4.80;99.90;;;;;;5031248;28;20195;-81
2022/03/05 02:22:20;;;;;;;24.38;13.63;;;4.70;99.90;;;;;;5031297;28;20181;-80
2022/03/05 02:24:47;;;;;;;24.10;13.55;;;4.70;99.90;;;;;;5032257;28;20727;-81
2022/03/05 02:27:13;;;;;;;28.55;14.15;;;4.50;99.90;;;;;;5032396;28;20254;-80
2022/03/05 02:29:39;;;;;;;27.70;15.23;;;4.50;99.90;;;;;;5032590;28;20206;-80
2022/03/05 02:32:05;;;;;;;27.05;14.45;;;4.50;99.90;;;;;;5031963;28;20261;-80
2022/03/05 02:34:31;;;;;;;25.77;14.95;;;4.50;99.90;;;;;;5032233;28;20188;-80
2022/03/05 02:36:57;;;;;;;27.30;16.23;;;4.30;99.90;;;;;;5032215;28;20238;-80
2022/03/05 02:39:26;;;;;;;26.25;15.45;;;4.30;99.90;;;;;;5032086;28;20186;-80
2022/03/05 02:41:56;;;;;;;32.03;15.27;;;4.40;99.90;;;;;;5032107;28;20560;-80
2022/03/05 02:44:22;;;;;;;27.70;15.93;;;4.50;99.90;;;;;;5031779;28;20903;-80
2022/03/05 02:46:50;;;;;;;31.67;15.40;;;4.50;99.90;;;;;;5032061;28;20593;-80
2022/03/05 02:49:15;;;;;;;34.15;15.45;;;4.40;99.90;;;;;;5032385;28;20190;-80
2022/03/05 02:51:41;;;;;;;26.95;15.98;;;4.60;99.90;;;;;;5032226;28;20176;-81
2022/03/05 02:54:07;;;;;;;27.30;15.82;;;4.70;99.90;;;;;;5031141;28;20222;-83
2022/03/05 02:56:33;;;;;;;28.95;15.52;;;4.60;99.90;;;;;;5030887;28;20236;-81
2022/03/05 02:58:58;;;;;;;29.95;16.23;;;4.60;99.90;;;;;;5031074;28;20548;-81
2022/03/05 03:01:24;;;;;;;38.85;15.90;;;4.50;99.90;;;;;;5032018;28;20176;-81
2022/03/05 03:03:50;;;;;;;25.60;15.13;;;4.40;99.90;;;;;;5030965;28;20176;-79
2022/03/05 03:06:16;;;;;;;27.05;15.68;;;4.00;99.90;;;;;;5030700;28;20198;-81
2022/03/05 03:08:42;;;;;;;41.25;16.60;;;3.90;99.90;;;;;;5030639;28;20172;-81
2022/03/05 03:11:07;;;;;;;36.33;16.48;;;4.00;99.90;;;;;;5030713;28;20172;-80
2022/03/05 03:13:33;;;;;;;29.50;16.83;;;4.10;99.90;;;;;;5030526;28;20242;-80
2022/03/05 03:15:59;;;;;;;32.72;17.13;;;4.00;99.90;;;;;;5031596;28;20262;-80
2022/03/05 03:18:24;;;;;;;34.38;16.52;;;3.90;99.90;;;;;;5032047;28;20175;-81
2022/03/05 03:20:53;;;;;;;28.50;15.95;;;3.70;99.90;;;;;;5030772;28;20624;-80
2022/03/05 03:23:18;;;;;;;28.42;16.35;;;3.80;99.90;;;;;;5032021;28;20172;-80
2022/03/05 03:25:44;;;;;;;29.77;16.40;;;4.00;99.90;;;;;;5035834;28;20207;-80
2022/03/05 03:28:10;;;;;;;29.00;16.10;;;4.10;99.90;;;;;;5035803;28;20168;-81
2022/03/05 03:30:35;;;;;;;27.58;16.58;;;4.00;99.90;;;;;;5034611;28;20168;-80
2022/03/05 03:33:01;;;;;;;31.63;16.20;;;3.90;99.90;;;;;;5034611;28;20731;-80
2022/03/05 03:35:27;;;;;;;27.08;16.77;;;3.90;99.90;;;;;;5035557;28;20515;-81
2022/03/05 03:37:53;;;;;;;27.23;16.10;;;3.90;99.90;;;;;;5034094;28;20574;-80
2022/03/05 03:40:19;;;;;;;26.92;14.93;;;3.90;99.90;;;;;;5035395;28;20164;-81
2022/03/05 03:42:48;;;;;;;32.70;16.67;;;3.80;99.90;;;;;;5035675;28;20199;-80
2022/03/05 03:45:14;;;;;;;30.65;15.88;;;4.10;99.90;;;;;;5035744;28;20175;-80
2022/03/05 03:47:43;;;;;;;34.67;16.48;;;4.30;99.90;;;;;;5034165;28;20610;-80
2022/03/05 03:50:12;;;;;;;28.50;16.45;;;4.30;99.90;;;;;;5035704;28;20203;-80
2022/03/05 03:52:38;;;;;;;32.53;15.40;;;4.40;99.90;;;;;;5034062;28;20214;-80
2022/03/05 03:55:06;;;;;;;32.55;15.45;;;4.10;99.90;;;;;;5034272;28;20188;-81
2022/03/05 03:57:32;;;;;;;27.17;15.48;;;4.10;99.90;;;;;;5035247;28;20251;-80
2022/03/05 03:59:57;;;;;;;26.55;15.35;;;4.10;99.90;;;;;;5035074;28;20667;-79
2022/03/05 04:02:23;;;;;;;26.23;15.20;;;4.10;99.90;;;;;;5034959;28;20528;-79
2022/03/05 04:04:52;;;;;;;33.15;15.45;;;4.10;99.90;;;;;;5033785;28;20192;-79
2022/03/05 04:10:05;;;;;;;27.15;15.15;;;4.10;99.90;;;;;;5035199;28;20255;-80
2022/03/05 04:12:31;;;;;;;28.80;16.33;;;4.20;99.90;;;;;;5034962;28;20668;-82
2022/03/05 04:14:56;;;;;;;25.83;14.27;;;4.30;99.90;;;;;;5034843;28;20180;-80
2022/03/05 04:17:22;;;;;;;29.77;16.83;;;4.30;99.90;;;;;;5033477;28;20179;-81
2022/03/05 04:19:48;;;;;;;26.48;16.73;;;4.20;99.90;;;;;;5034677;28;20680;-80
2022/03/05 04:22:14;;;;;;;26.15;16.23;;;4.30;99.90;;;;;;5034872;28;20525;-80
2022/03/05 04:24:39;;;;;;;30.63;15.55;;;3.90;99.90;;;;;;5033614;28;20195;-80
2022/03/05 04:27:05;;;;;;;32.13;15.55;;;3.90;99.90;;;;;;5033661;28;20176;-81
2022/03/05 04:29:31;;;;;;;26.10;15.43;;;4.00;99.90;;;;;;5034734;28;20596;-81
2022/03/05 04:31:56;;;;;;;23.15;14.27;;;4.00;99.90;;;;;;5036084;28;20168;-80
2022/03/05 04:34:22;;;;;;;31.25;15.80;;;3.90;99.90;;;;;;5033770;28;20595;-82
2022/03/05 04:36:48;;;;;;;32.97;15.20;;;3.80;99.90;;;;;;5034780;28;20621;-80
2022/03/05 04:39:13;;;;;;;28.70;16.63;;;3.80;99.90;;;;;;5033548;28;20210;-80
2022/03/05 04:41:39;;;;;;;32.97;15.18;;;3.80;99.90;;;;;;5034677;28;20164;-81
2022/03/05 04:44:05;;;;;;;28.70;16.92;;;3.80;99.90;;;;;;5034984;28;20184;-81
2022/03/05 04:46:31;;;;;;;25.73;15.60;;;3.80;99.90;;;;;;5034177;28;20258;-81
2022/03/05 04:48:57;;;;;;;24.67;14.98;;;3.60;99.90;;;;;;5032867;28;20651;-81
2022/03/05 04:51:23;;;;;;;29.60;16.23;;;3.50;99.90;;;;;;5032981;28;20172;-81
2022/03/05 04:53:49;;;;;;;26.27;15.38;;;3.40;99.90;;;;;;5034004;28;20211;-80
2022/03/05 04:56:15;;;;;;;28.52;14.63;;;3.50;99.90;;;;;;5032983;28;20240;-78
2022/03/05 04:58:40;;;;;;;28.52;16.02;;;3.50;99.90;;;;;;5034309;28;20179;-78
2022/03/05 05:01:06;;;;;;;27.13;15.35;;;3.60;99.90;;;;;;5034285;28;20647;-80
2022/03/05 05:03:33;;;;;;;29.88;16.30;;;3.40;99.90;;;;;;5032934;28;20627;-80
2022/03/05 05:06:01;;;;;;;32.30;15.85;;;3.50;99.90;;;;;;5034095;28;20223;-80
2022/03/05 05:08:28;;;;;;;31.00;15.27;;;3.70;99.90;;;;;;5032442;28;20198;-79
2022/03/05 05:10:53;;;;;;;29.25;15.77;;;3.80;99.90;;;;;;5034114;28;20161;-80
2022/03/05 05:13:19;;;;;;;25.65;15.68;;;3.70;99.90;;;;;;5032460;28;20571;-80
2022/03/05 05:15:47;;;;;;;30.55;17.60;;;3.60;99.90;;;;;;5032678;28;20196;-80
2022/03/05 05:18:13;;;;;;;27.50;15.40;;;3.70;99.90;;;;;;5032188;28;20168;-79
2022/03/05 05:20:38;;;;;;;33.00;15.55;;;3.70;99.90;;;;;;5032434;28;20160;-81
2022/03/05 05:23:04;;;;;;;29.48;15.35;;;3.50;99.90;;;;;;5034004;28;20251;-81
2022/03/05 05:25:32;;;;;;;28.33;15.88;;;3.40;99.90;;;;;;5032737;28;20237;-80
2022/03/05 05:27:59;;;;;;;24.73;14.73;;;3.40;99.90;;;;;;5033596;28;20172;-80
2022/03/05 05:30:24;;;;;;;25.63;14.63;;;3.20;99.90;;;;;;5033785;28;20161;-80
2022/03/05 05:32:50;;;;;;;35.03;17.02;;;3.30;99.90;;;;;;5033391;28;20203;-80
2022/03/05 05:35:15;;;;;;;28.52;17.38;;;3.30;99.90;;;;;;5033734;28;20230;-80
2022/03/05 05:37:41;;;;;;;28.83;15.82;;;3.30;99.90;;;;;;5031863;28;20637;-80
2022/03/05 05:40:08;;;;;;;28.45;15.85;;;3.20;99.90;;;;;;5032961;28;20178;-80
2022/03/05 05:42:33;;;;;;;28.48;16.30;;;3.10;99.90;;;;;;5031894;28;20241;-80
2022/03/05 05:44:59;;;;;;;27.83;15.70;;;3.20;99.90;;;;;;5033050;28;20544;-80
2022/03/05 05:47:25;;;;;;;28.38;16.95;;;3.10;99.90;;;;;;5031949;28;20212;-80
2022/03/05 05:49:50;;;;;;;29.83;17.13;;;3.20;99.90;;;;;;5033256;28;20163;-80
2022/03/05 05:52:18;;;;;;;33.97;17.73;;;3.50;99.90;;;;;;5033201;28;20196;-80
2022/03/05 05:54:44;;;;;;;38.88;18.52;;;3.50;99.90;;;;;;5031996;28;20275;-80
2022/03/05 05:57:09;;;;;;;32.38;16.23;;;3.50;99.90;;;;;;5033166;28;20670;-80
2022/03/05 05:59:35;;;;;;;26.92;16.20;;;3.50;99.90;;;;;;5032318;28;20164;-81
2022/03/05 06:02:01;;;;;;;31.05;16.23;;;3.20;99.90;;;;;;5032862;28;20164;-80
2022/03/05 06:04:27;;;;;;;31.05;14.90;;;3.20;99.90;;;;;;5031255;28;20239;-80
2022/03/05 06:06:52;;;;;;;27.70;15.45;;;3.10;99.90;;;;;;5031504;28;20175;-80
2022/03/05 06:09:18;;;;;;;24.98;14.68;;;3.10;99.90;;;;;;5032506;28;20217;-80
2022/03/05 06:11:43;;;;;;;37.88;15.70;;;2.90;99.90;;;;;;5031667;28;20655;-80
2022/03/05 06:14:10;;;;;;;27.80;15.73;;;2.90;99.90;;;;;;5031386;28;20684;-82
2022/03/05 06:16:36;;;;;;;26.55;15.63;;;3.10;99.90;;;;;;5031443;28;20578;-84
2022/03/05 06:19:02;;;;;;;26.42;15.23;;;3.10;99.90;;;;;;5031647;28;20183;-80
2022/03/05 06:21:27;;;;;;;25.17;15.10;;;3.20;99.90;;;;;;5031463;28;20167;-80
2022/03/05 06:23:53;;;;;;;35.67;16.27;;;3.10;99.90;;;;;;5032272;28;20175;-80
2022/03/05 06:26:19;;;;;;;30.40;15.68;;;2.90;99.90;;;;;;5032213;28;20188;-80
2022/03/05 06:28:44;;;;;;;26.05;14.38;;;2.90;99.90;;;;;;5032335;28;20168;-80
2022/03/05 06:31:10;;;;;;;38.30;16.17;;;3.20;99.90;;;;;;5030664;28;20176;-82
2022/03/05 06:33:35;;;;;;;30.98;15.93;;;3.30;99.90;;;;;;5032325;28;20212;-80
2022/03/05 06:36:01;;;;;;;23.90;14.43;;;3.20;99.90;;;;;;5030945;28;20195;-80
2022/03/05 06:38:27;;;;;;;30.25;14.73;;;2.90;99.90;;;;;;5031345;28;20175;-80
2022/03/05 06:40:52;;;;;;;29.40;16.40;;;3.00;99.90;;;;;;5032246;28;20517;-80
2022/03/05 06:43:19;;;;;;;30.35;15.82;;;3.10;99.90;;;;;;5031895;28;20218;-80
2022/03/05 06:45:45;;;;;;;31.17;16.30;;;2.90;99.90;;;;;;5032177;28;20215;-80
2022/03/05 06:48:10;;;;;;;31.98;15.10;;;2.70;99.90;;;;;;5030613;28;20218;-80
2022/03/05 06:50:36;;;;;;;29.83;15.80;;;2.80;99.90;;;;;;5031055;28;20609;-80
2022/03/05 06:53:03;;;;;;;31.45;16.45;;;3.00;99.90;;;;;;5030998;28;20215;-80
2022/03/05 06:55:28;;;;;;;40.65;15.95;;;3.00;99.90;;;;;;5031969;28;20222;-81
2022/03/05 06:57:54;;;;;;;30.20;16.50;;;3.10;99.90;;;;;;5031296;28;20208;-81
2022/03/05 07:00:20;;;;;;;32.90;15.52;;;3.20;99.90;;;;;;5030718;28;20632;-80
2022/03/05 07:02:46;;;;;;;32.47;16.13;;;3.10;99.90;;;;;;5030869;28;20644;-80
2022/03/05 07:05:12;;;;;;;26.80;15.77;;;3.10;99.90;;;;;;5031877;28;20214;-80
2022/03/05 07:07:38;;;;;;;24.33;15.45;;;3.10;99.90;;;;;;5032014;28;20167;-80
2022/03/05 07:10:05;;;;;;;25.92;14.95;;;3.10;99.90;;;;;;5030918;28;20168;-80
2022/03/05 07:12:31;;;;;;;24.98;15.00;;;3.10;99.90;;;;;;5030529;28;20227;-80
2022/03/05 07:14:58;;;;;;;28.30;15.18;;;3.30;99.90;;;;;;5030608;28;20221;-80
2022/03/05 07:17:24;;;;;;;31.42;15.98;;;3.40;99.90;;;;;;5030736;28;20251;-80
2022/03/05 07:19:50;;;;;;;34.70;15.50;;;3.60;99.90;;;;;;5030673;28;20172;-80
2022/03/05 07:22:17;;;;;;;27.00;15.63;;;3.60;99.90;;;;;;5031901;28;20164;-80
2022/03/05 07:24:42;;;;;;;28.83;17.20;;;3.70;99.90;;;;;;5031313;28;20447;-80
2022/03/05 07:27:08;;;;;;;32.30;15.95;;;3.70;99.90;;;;;;5030536;28;20218;-80
2022/03/05 07:29:34;;;;;;;29.92;16.10;;;3.60;99.90;;;;;;5030797;28;20267;-80
2022/03/05 07:31:59;;;;;;;27.73;15.60;;;3.70;99.90;;;;;;5030346;28;20267;-80
2022/03/05 07:34:26;;;;;;;30.30;16.35;;;3.90;99.90;;;;;;5030108;28;20679;-81
2022/03/05 07:36:51;;;;;;;24.80;15.32;;;4.20;99.90;;;;;;5031670;28;20629;-80
2022/03/05 07:39:17;;;;;;;30.10;16.75;;;4.30;99.90;;;;;;5031530;28;20246;-81
2022/03/05 07:41:43;;;;;;;32.75;16.15;;;4.40;99.90;;;;;;5030234;28;20262;-80
2022/03/05 07:44:09;;;;;;;29.75;16.33;;;4.50;99.90;;;;;;5030441;28;20266;-81
2022/03/05 07:46:37;;;;;;;26.92;16.23;;;4.60;99.90;;;;;;5031507;28;20194;-80
2022/03/05 07:49:03;;;;;;;25.65;15.60;;;4.40;99.90;;;;;;5031022;28;20172;-81
2022/03/05 07:51:29;;;;;;;28.48;16.48;;;4.50;99.90;;;;;;5030095;28;20163;-80
2022/03/05 07:53:54;;;;;;;29.98;16.27;;;4.70;99.90;;;;;;5030340;28;20220;-80
2022/03/05 07:56:21;;;;;;;32.58;15.88;;;4.70;99.90;;;;;;5031955;28;20702;-80
2022/03/05 07:58:47;;;;;;;31.95;15.05;;;4.80;99.90;;;;;;5031747;28;20168;-80
2022/03/05 08:01:13;;;;;;;28.90;16.05;;;4.90;99.90;;;;;;5030164;28;20250;-80
2022/03/05 08:03:38;;;;;;;31.77;15.88;;;4.90;99.90;;;;;;5030476;28;20168;-80
2022/03/05 08:06:04;;;;;;;25.83;15.35;;;5.00;99.90;;;;;;5031573;28;20180;-80
2022/03/05 08:08:29;;;;;;;28.88;15.50;;;5.20;99.90;;;;;;5031360;28;20204;-80
2022/03/05 08:10:56;;;;;;;32.80;16.08;;;5.30;99.90;;;;;;5033598;28;20259;-81
2022/03/05 08:13:22;;;;;;;29.77;17.10;;;5.40;99.90;;;;;;5033738;28;20219;-81
2022/03/05 08:15:48;;;;;;;31.15;16.80;;;5.50;99.90;;;;;;5034954;28;20179;-79
2022/03/05 08:18:13;;;;;;;26.45;15.38;;;5.60;99.90;;;;;;5033788;28;20183;-79
2022/03/05 08:20:39;;;;;;;32.05;16.90;;;5.80;99.90;;;;;;5035337;28;20195;-80
2022/03/05 08:23:04;;;;;;;35.58;16.23;;;5.90;99.90;;;;;;5033226;28;20230;-80
2022/03/05 08:25:30;;;;;;;29.13;15.40;;;6.00;99.90;;;;;;5034397;28;20695;-80
2022/03/05 08:27:56;;;;;;;32.15;15.77;;;6.20;99.90;;;;;;5034655;28;20160;-80
2022/03/05 08:30:22;;;;;;;26.98;15.10;;;6.40;99.90;;;;;;5034319;28;20172;-79
2022/03/05 08:32:47;;;;;;;29.30;16.92;;;6.50;99.90;;;;;;5033158;28;20238;-79
2022/03/05 08:35:14;;;;;;;32.22;17.08;;;6.50;99.90;;;;;;5034499;28;20222;-80
2022/03/05 08:37:41;;;;;;;26.65;16.42;;;6.50;99.90;;;;;;5032965;28;20171;-79
2022/03/05 08:40:09;;;;;;;31.08;15.52;;;6.40;99.90;;;;;;5033075;28;20168;-82
2022/03/05 08:42:35;;;;;;;40.75;17.70;;;6.40;99.90;;;;;;5033883;28;20184;-79
2022/03/05 08:45:02;;;;;;;33.28;16.92;;;6.60;99.90;;;;;;5034333;28;20192;-80
2022/03/05 08:47:28;;;;;;;31.38;17.48;;;6.50;99.90;;;;;;5034124;28;20175;-80
2022/03/05 08:49:54;;;;;;;30.55;15.68;;;6.60;99.90;;;;;;5034070;28;20167;-80
2022/03/05 08:52:19;;;;;;;28.23;15.95;;;6.70;99.90;;;;;;5034050;28;20204;-80
2022/03/05 08:54:45;;;;;;;30.70;17.48;;;6.70;99.90;;;;;;5032790;28;20195;-80
2022/03/05 08:57:11;;;;;;;27.48;16.13;;;6.70;99.90;;;;;;5034254;28;20168;-81
2022/03/05 08:59:40;;;;;;;34.42;19.33;;;6.90;99.90;;;;;;5033064;28;20747;-81
2022/03/05 09:02:06;;;;;;;30.73;15.90;;;6.90;99.90;;;;;;5033001;28;20635;-81
2022/03/05 09:04:33;;;;;;;29.92;15.32;;;6.70;99.90;;;;;;5032353;28;20187;-78
2022/03/05 09:06:59;;;;;;;39.28;18.48;;;6.80;99.90;;;;;;5033201;28;20164;-78
2022/03/05 09:09:25;;;;;;;32.60;17.58;;;7.00;99.90;;;;;;5032132;28;20174;-79
2022/03/05 09:11:50;;;;;;;31.58;18.27;;;7.00;99.90;;;;;;5031997;28;20171;-79
2022/03/05 09:14:16;;;;;;;36.22;17.10;;;7.10;99.90;;;;;;5034371;28;20172;-79
2022/03/05 09:16:42;;;;;;;35.08;17.70;;;7.30;99.90;;;;;;5033936;28;20199;-81
2022/03/05 09:19:08;;;;;;;35.58;18.65;;;7.40;99.90;;;;;;5033623;28;20176;-79
2022/03/05 09:21:35;;;;;;;32.20;17.02;;;7.50;99.90;;;;;;5032952;28;20700;-79
2022/03/05 09:24:01;;;;;;;28.58;16.77;;;7.60;99.90;;;;;;5033341;28;20624;-79
2022/03/05 09:26:27;;;;;;;41.78;18.83;;;7.60;99.90;;;;;;5032082;28;20283;-79
2022/03/05 09:28:53;;;;;;;37.20;17.73;;;7.50;99.90;;;;;;5033676;28;20172;-79
2022/03/05 09:31:18;;;;;;;37.53;18.75;;;7.60;99.90;;;;;;5033678;28;20168;-79
2022/03/05 09:33:44;;;;;;;32.10;17.77;;;7.40;99.90;;;;;;5033337;28;20208;-80
2022/03/05 09:36:11;;;;;;;31.00;17.77;;;7.40;99.90;;;;;;5033581;28;20265;-79
2022/03/05 09:38:37;;;;;;;31.33;17.48;;;7.50;99.90;;;;;;5032962;28;20648;-78
2022/03/05 09:41:05;;;;;;;35.00;19.60;;;7.70;99.90;;;;;;5033442;28;20170;-79
2022/03/05 09:43:31;;;;;;;35.88;19.02;;;7.80;99.90;;;;;;5033230;28;20195;-78
2022/03/05 09:46:00;;;;;;;37.00;18.02;;;8.00;99.90;;;;;;5031892;28;20275;-78
2022/03/05 09:48:27;;;;;;;38.35;19.73;;;7.90;99.90;;;;;;5032755;28;20164;-80
2022/03/05 09:50:52;;;;;;;39.40;19.35;;;7.80;99.90;;;;;;5032893;28;20168;-80
2022/03/05 09:53:20;;;;;;;35.75;19.95;;;7.70;99.90;;;;;;5031466;28;20199;-79
2022/03/05 09:55:48;;;;;;;41.58;18.58;;;7.90;99.90;;;;;;5032867;28;20180;-79
2022/03/05 09:58:14;;;;;;;50.05;25.60;;;7.90;99.90;;;;;;5032179;28;20167;-81
2022/03/05 10:00:40;;;;;;;41.55;19.95;;;7.90;99.90;;;;;;5038163;28;20632;-79
2022/03/05 10:03:06;;;;;;;38.22;20.88;;;8.00;99.90;;;;;;5034444;28;20561;-80
2022/03/05 10:05:32;;;;;;;49.92;22.45;;;8.20;99.90;;;;;;5028804;28;20199;-82
2022/03/05 10:08:20;;;;;;;35.88;20.08;;;8.30;99.90;;;;;;5043249;28;20232;-83
2022/03/05 10:10:50;;;;;;;31.30;18.42;;;8.50;99.90;;;;;;5034453;28;20519;-80
2022/03/05 10:13:24;;;;;;;32.90;18.23;;;8.90;99.90;;;;;;5052161;28;20260;-80
2022/03/05 10:15:52;;;;;;;34.90;19.92;;;8.70;99.90;;;;;;5052124;28;20195;-80
2022/03/05 10:18:25;;;;;;;33.17;19.40;;;8.70;99.90;;;;;;5052080;28;20616;-81
2022/03/05 10:20:52;;;;;;;38.60;19.75;;;8.60;99.90;;;;;;5051829;28;20619;-80
2022/03/05 10:23:19;;;;;;;35.50;20.27;;;8.50;99.90;;;;;;5051926;28;20174;-82
2022/03/05 10:26:04;;;;;;;35.88;19.30;;;8.60;99.90;;;;;;5033625;28;20191;-81
2022/03/05 10:28:30;;;;;;;37.03;18.65;;;8.70;99.90;;;;;;5052074;28;20170;-81
2022/03/05 10:31:08;;;;;;;36.35;20.13;;;8.70;99.90;;;;;;5033817;28;20523;-80
2022/03/05 10:33:47;;;;;;;34.38;20.55;;;8.70;99.90;;;;;;5050910;28;20214;-78
2022/03/05 10:36:16;;;;;;;34.67;19.35;;;8.60;99.90;;;;;;5051171;28;20222;-86
2022/03/05 10:38:43;;;;;;;38.05;20.15;;;8.90;99.90;;;;;;5052351;28;20212;-79
2022/03/05 10:41:08;;;;;;;34.10;19.95;;;9.10;99.90;;;;;;5032896;28;20198;-79
2022/03/05 10:43:34;;;;;;;41.17;20.75;;;9.10;99.90;;;;;;5033984;28;20183;-80
2022/03/05 10:46:00;;;;;;;43.55;20.90;;;9.10;99.90;;;;;;5050837;28;20210;-80
2022/03/05 10:48:32;;;;;;;34.15;19.27;;;9.20;99.90;;;;;;5033780;28;20163;-80
2022/03/05 10:51:04;;;;;;;37.60;20.95;;;9.20;99.90;;;;;;5051289;28;20250;-80
2022/03/05 10:53:41;;;;;;;31.67;20.08;;;9.00;99.90;;;;;;5032865;28;20635;-80
2022/03/05 10:56:21;;;;;;;45.25;20.92;;;9.20;99.90;;;;;;5032483;28;20193;-81
2022/03/05 10:59:09;;;;;;;37.25;19.65;;;9.40;99.90;;;;;;5051982;28;20171;-82
2022/03/05 11:01:42;;;;;;;35.80;19.98;;;9.60;99.90;;;;;;5033406;28;20225;-80
2022/03/05 11:04:10;;;;;;;45.60;19.67;;;9.80;99.90;;;;;;5051056;28;20179;-80
2022/03/05 11:06:38;;;;;;;47.72;20.27;;;9.80;99.90;;;;;;5051223;28;20686;-79
2022/03/05 11:09:08;;;;;;;36.38;19.38;;;9.80;99.90;;;;;;5051386;28;20658;-78
2022/03/05 11:11:42;;;;;;;32.05;18.58;;;9.80;99.90;;;;;;5051452;28;20619;-77
2022/03/05 11:14:15;;;;;;;36.10;19.48;;;9.80;99.90;;;;;;5033702;28;20211;-77
2022/03/05 11:16:41;;;;;;;35.42;20.15;;;9.80;99.90;;;;;;5051474;28;20643;-78
2022/03/05 11:19:08;;;;;;;37.83;21.33;;;10.00;99.90;;;;;;5051687;28;20317;-78
2022/03/05 11:21:34;;;;;;;41.83;20.35;;;9.90;99.90;;;;;;5036552;28;20176;-78
2022/03/05 11:24:01;;;;;;;36.22;20.38;;;9.90;99.90;;;;;;5031659;28;20517;-78
2022/03/05 11:26:30;;;;;;;42.72;20.85;;;9.70;99.90;;;;;;5031749;28;20330;-78
2022/03/05 11:28:56;;;;;;;39.97;20.70;;;9.60;99.90;;;;;;5031756;28;20187;-79
2022/03/05 11:31:23;;;;;;;46.28;20.48;;;9.60;99.90;;;;;;5036452;28;20532;-77
2022/03/05 11:33:49;;;;;;;39.88;21.55;;;9.50;99.90;;;;;;5031454;28;20573;-78
2022/03/05 11:36:28;;;;;;;39.72;21.77;;;9.30;99.90;;;;;;5031391;28;20195;-79
2022/03/05 11:39:12;;;;;;;36.58;21.35;;;9.20;99.90;;;;;;5031745;28;20168;-78
2022/03/05 11:41:55;;;;;;;40.92;22.00;;;9.40;99.90;;;;;;5031540;28;20201;-79
2022/03/05 11:44:23;;;;;;;47.03;20.10;;;9.40;99.90;;;;;;5032764;28;20183;-78
2022/03/05 11:47:09;;;;;;;32.47;18.60;;;9.60;99.90;;;;;;5035138;28;20168;-77
2022/03/05 11:49:55;;;;;;;35.45;17.80;;;9.90;99.90;;;;;;5035449;28;20309;-77
2022/03/05 11:52:21;;;;;;;28.40;16.73;;;10.10;99.90;;;;;;5034904;28;20205;-77
2022/03/05 11:55:17;;;;;;;32.15;16.38;;;10.10;99.90;;;;;;5035405;28;20188;-77
2022/03/05 11:57:51;;;;;;;35.17;18.73;;;10.10;99.90;;;;;;5026554;28;20245;-77
2022/03/05 12:00:29;;;;;;;28.73;17.13;;;10.00;99.90;;;;;;5035157;28;20305;-77
2022/03/05 12:02:55;;;;;;;35.55;17.02;;;9.90;99.90;;;;;;5034560;28;20171;-78
2022/03/05 12:05:37;;;;;;;31.00;17.33;;;9.70;99.90;;;;;;5033243;28;20194;-79
2022/03/05 12:08:08;;;;;;;33.05;17.00;;;9.80;99.90;;;;;;5034737;28;20172;-78
2022/03/05 12:10:34;;;;;;;29.63;17.38;;;9.90;99.90;;;;;;5034586;28;20171;-79
2022/03/05 12:13:03;;;;;;;30.23;18.20;;;10.10;99.90;;;;;;5034832;28;20245;-77
2022/03/05 12:15:37;;;;;;;29.67;17.00;;;10.20;99.90;;;;;;5034562;28;20294;-78
2022/03/05 12:18:04;;;;;;;28.05;16.20;;;10.10;99.90;;;;;;5034211;28;20175;-78
2022/03/05 12:20:34;;;;;;;30.67;17.88;;;10.00;99.90;;;;;;5034755;28;20160;-79
2022/03/05 12:23:08;;;;;;;37.38;18.33;;;10.20;99.90;;;;;;5033412;28;20187;-80
2022/03/05 12:25:36;;;;;;;31.02;18.50;;;10.30;99.90;;;;;;5034975;28;20183;-80
2022/03/05 12:28:04;;;;;;;34.88;17.02;;;10.20;99.90;;;;;;5034686;28;20164;-80
2022/03/05 12:30:33;;;;;;;30.58;17.38;;;10.20;99.90;;;;;;5034656;28;20204;-79
2022/03/05 12:33:03;;;;;;;27.50;16.17;;;10.20;99.90;;;;;;5034372;28;20204;-79
2022/03/05 12:35:30;;;;;;;33.22;19.33;;;10.20;99.90;;;;;;5033873;28;20188;-79
2022/03/05 12:37:56;;;;;;;33.63;19.27;;;10.20;99.90;;;;;;5032748;28;20171;-79